createdAt,value
2018-07-15T00:00:54.891Z,55.10
2018-07-15T00:04:58.319Z,55.37
2018-07-15T00:09:01.727Z,55.73
2018-07-15T00:13:05.165Z,55.61
2018-07-15T00:17:08.581Z,55.68
2018-07-15T00:21:12.041Z,55.68
2018-07-15T00:25:15.442Z,55.83
2018-07-15T00:29:18.873Z,55.17
2018-07-15T00:33:22.462Z,55.43
2018-07-15T00:37:25.934Z,55.93
2018-07-15T00:41:29.718Z,56.25
2018-07-15T00:45:33.117Z,55.27
2018-07-15T00:49:36.556Z,55.80
2018-07-15T00:53:39.991Z,55.62
2018-07-15T00:57:43.424Z,55.52
2018-07-15T01:01:46.834Z,55.57
2018-07-15T01:05:51.160Z,55.76
2018-07-15T01:09:54.614Z,55.96
2018-07-15T01:13:58.985Z,56.26
2018-07-15T01:18:02.430Z,56.48
2018-07-15T01:22:05.918Z,56.92
2018-07-15T01:26:09.365Z,57.41
2018-07-15T01:30:12.823Z,57.26
2018-07-15T01:34:16.459Z,57.25
2018-07-15T01:38:19.908Z,56.94
2018-07-15T01:42:23.486Z,56.63
2018-07-15T01:46:28.487Z,57.69
2018-07-15T01:50:32.853Z,57.95
2018-07-15T01:54:36.892Z,57.77
2018-07-15T01:58:41.962Z,58.07
2018-07-15T02:02:45.385Z,58.05
2018-07-15T02:06:48.854Z,58.05
2018-07-15T02:10:53.414Z,58.12
2018-07-15T02:14:56.857Z,57.67
2018-07-15T02:19:00.277Z,58.31
2018-07-15T02:23:03.741Z,57.95
2018-07-15T02:27:07.491Z,58.87
2018-07-15T02:31:18.650Z,58.67
2018-07-15T02:35:22.166Z,58.95
2018-07-15T02:39:25.594Z,58.96
2018-07-15T02:43:29.031Z,59.92
2018-07-15T02:47:32.446Z,59.15
2018-07-15T02:51:35.873Z,59.62
2018-07-15T02:55:39.307Z,59.86
2018-07-15T02:59:42.798Z,59.32
2018-07-15T03:03:46.199Z,59.21
2018-07-15T03:07:49.630Z,59.48
2018-07-15T03:11:53.060Z,59.31
2018-07-15T03:15:56.499Z,60.07
2018-07-15T03:19:59.912Z,60.01
2018-07-15T03:24:03.442Z,59.98
2018-07-15T03:28:07.008Z,59.66
2018-07-15T03:32:10.439Z,60.18
2018-07-15T03:36:13.845Z,59.62
2018-07-15T03:40:17.394Z,61.00
2018-07-15T03:44:20.789Z,60.73
2018-07-15T03:48:24.298Z,61.27
2018-07-15T03:52:27.749Z,61.25
2018-07-15T03:56:31.133Z,61.30
2018-07-15T04:00:34.635Z,61.56
2018-07-15T04:04:38.067Z,61.83
2018-07-15T04:08:41.654Z,61.75
2018-07-15T04:12:44.964Z,61.52
2018-07-15T04:16:48.422Z,61.45
2018-07-15T04:20:51.855Z,61.52
2018-07-15T04:24:55.293Z,61.81
2018-07-15T04:28:58.875Z,61.98
2018-07-15T04:33:02.321Z,62.33
2018-07-15T04:37:06.033Z,62.26
2018-07-15T04:41:09.475Z,62.78
2018-07-15T04:45:12.895Z,61.94
2018-07-15T04:49:16.323Z,62.43
2018-07-15T04:53:19.765Z,62.43
2018-07-15T04:57:23.198Z,62.30
2018-07-15T05:01:26.664Z,62.06
2018-07-15T05:05:30.254Z,61.61
2018-07-15T05:09:33.687Z,61.83
2018-07-15T05:13:37.144Z,60.71
2018-07-15T05:17:40.572Z,60.57
2018-07-15T05:21:44.036Z,60.07
2018-07-15T05:25:47.452Z,59.88
2018-07-15T05:29:50.893Z,60.18
2018-07-15T05:33:54.332Z,59.11
2018-07-15T05:37:57.794Z,58.47
2018-07-15T05:42:01.289Z,59.27
2018-07-15T05:46:04.732Z,58.08
2018-07-15T05:50:08.281Z,58.03
2018-07-15T05:54:11.706Z,57.87
2018-07-15T05:58:15.144Z,57.34
2018-07-15T06:02:18.607Z,56.85
2018-07-15T06:06:22.018Z,56.06
2018-07-15T06:10:25.459Z,54.81
2018-07-15T06:14:29.232Z,54.46
2018-07-15T06:18:32.670Z,54.88
2018-07-15T06:22:36.465Z,52.98
2018-07-15T06:26:39.881Z,53.27
2018-07-15T06:30:43.342Z,53.31
2018-07-15T06:34:46.771Z,52.76
2018-07-15T06:38:50.183Z,52.69
2018-07-15T06:42:53.582Z,51.27
2018-07-15T06:46:56.988Z,51.08
2018-07-15T06:51:00.448Z,51.15
2018-07-15T06:55:04.027Z,51.12
2018-07-15T06:59:07.447Z,50.89
2018-07-15T07:03:10.892Z,49.99
2018-07-15T07:07:14.427Z,49.91
2018-07-15T07:11:17.971Z,49.85
2018-07-15T07:15:21.502Z,48.82
2018-07-15T07:19:24.911Z,49.03
2018-07-15T07:23:28.391Z,49.63
2018-07-15T07:27:31.815Z,49.45
2018-07-15T07:31:35.273Z,49.02
2018-07-15T07:35:38.689Z,48.59
2018-07-15T07:39:42.127Z,46.23
2018-07-15T07:43:45.626Z,47.23
2018-07-15T07:47:49.026Z,45.64
2018-07-15T07:51:52.570Z,46.70
2018-07-15T07:55:56.008Z,47.01
2018-07-15T07:59:59.417Z,46.51
2018-07-15T08:04:02.814Z,47.32
2018-07-15T08:08:06.289Z,46.28
2018-07-15T08:12:09.767Z,46.16
2018-07-15T08:16:13.429Z,46.25
2018-07-15T08:20:16.858Z,46.22
2018-07-15T08:24:20.291Z,47.10
2018-07-15T08:28:23.894Z,46.61
2018-07-15T08:32:27.409Z,47.43
2018-07-15T08:36:30.838Z,47.32
2018-07-15T08:40:34.309Z,46.91
2018-07-15T08:44:37.738Z,45.89
2018-07-15T08:48:41.159Z,46.16
2018-07-15T08:52:44.637Z,45.40
2018-07-15T08:56:48.041Z,43.42
2018-07-15T09:00:51.477Z,44.43
2018-07-15T09:04:54.940Z,42.72
2018-07-15T09:08:58.363Z,44.21
2018-07-15T09:13:01.806Z,42.80
2018-07-15T09:17:05.246Z,43.23
2018-07-15T09:21:08.684Z,41.40
2018-07-15T09:25:12.138Z,41.58
2018-07-15T09:29:15.536Z,41.36
2018-07-15T09:33:19.115Z,42.84
2018-07-15T09:37:22.590Z,40.87
2018-07-15T09:41:26.024Z,41.27
2018-07-15T09:45:29.470Z,40.90
2018-07-15T09:49:32.962Z,41.83
2018-07-15T09:53:36.429Z,41.33
2018-07-15T09:57:39.844Z,40.04
2018-07-15T10:01:43.273Z,39.68
2018-07-15T10:05:46.781Z,40.13
2018-07-15T10:09:50.195Z,39.78
2018-07-15T10:13:53.606Z,39.48
2018-07-15T10:17:57.038Z,38.39
2018-07-15T10:22:00.454Z,38.26
2018-07-15T10:26:03.851Z,38.31
2018-07-15T10:30:07.390Z,39.01
2018-07-15T10:34:10.892Z,40.08
2018-07-15T10:38:14.323Z,39.26
2018-07-15T10:42:17.731Z,36.96
2018-07-15T10:46:21.171Z,37.22
2018-07-15T10:50:24.601Z,38.27
2018-07-15T10:54:28.068Z,39.13
2018-07-15T10:58:31.506Z,37.00
2018-07-15T11:02:34.938Z,37.38
2018-07-15T11:06:38.377Z,36.78
2018-07-15T11:10:41.788Z,36.37
2018-07-15T11:14:45.246Z,35.08
2018-07-15T11:18:48.676Z,34.43
2018-07-15T11:22:52.220Z,36.91
2018-07-15T11:26:55.664Z,34.17
2018-07-15T11:30:59.190Z,36.14
2018-07-15T11:35:02.594Z,35.77
2018-07-15T11:39:07.079Z,34.20
2018-07-15T11:43:10.425Z,34.79
2018-07-15T11:47:13.886Z,35.08
2018-07-15T11:51:17.498Z,35.99
2018-07-15T11:55:20.948Z,34.21
2018-07-15T11:59:24.395Z,33.70
2018-07-15T12:03:27.810Z,35.67
2018-07-15T12:07:31.326Z,34.78
2018-07-15T12:11:35.128Z,34.91
2018-07-15T12:15:38.767Z,34.88
2018-07-15T12:19:42.600Z,33.89
2018-07-15T12:23:46.417Z,33.95
2018-07-15T12:27:50.103Z,33.09
2018-07-15T12:31:53.912Z,32.15
2018-07-15T12:35:57.677Z,32.94
2018-07-15T12:40:01.358Z,34.04
2018-07-15T12:44:05.180Z,34.28
2018-07-15T12:48:08.933Z,32.81
2018-07-15T12:52:12.687Z,33.49
2018-07-15T12:56:16.400Z,33.45
2018-07-15T13:00:20.089Z,32.73
2018-07-15T13:04:23.827Z,33.15
2018-07-15T13:08:27.520Z,30.62
2018-07-15T13:12:31.488Z,30.50
2018-07-15T13:25:36.843Z,31.13
2018-07-15T13:29:40.299Z,30.71
2018-07-15T13:33:44.584Z,31.90
2018-07-15T13:37:48.014Z,32.74
2018-07-15T13:41:51.499Z,31.50
2018-07-15T13:45:54.989Z,32.52
2018-07-15T13:49:58.440Z,32.72
2018-07-15T13:54:01.959Z,31.32
2018-07-15T13:58:05.416Z,31.70
2018-07-15T14:02:08.816Z,32.31
2018-07-15T14:06:12.237Z,31.95
2018-07-15T14:10:15.662Z,33.17
2018-07-15T14:14:19.086Z,32.47
2018-07-15T14:18:22.507Z,32.59
2018-07-15T14:22:25.966Z,32.40
2018-07-15T14:26:29.419Z,33.05
2018-07-15T14:30:32.898Z,33.03
2018-07-15T14:34:36.479Z,32.34
2018-07-15T14:38:39.913Z,31.99
2018-07-15T14:42:43.322Z,30.25
2018-07-15T14:46:46.848Z,31.03
2018-07-15T14:50:50.203Z,32.46
2018-07-15T14:54:53.644Z,32.13
2018-07-15T14:58:57.080Z,31.83
2018-07-15T15:03:00.502Z,33.32
2018-07-15T15:07:03.941Z,31.45
2018-07-15T15:11:07.528Z,32.51
2018-07-15T15:15:10.954Z,30.27
2018-07-15T15:19:14.396Z,31.62
2018-07-15T15:23:17.990Z,31.16
2018-07-15T15:27:21.546Z,30.95
2018-07-15T15:31:25.018Z,32.12
2018-07-15T15:35:28.442Z,31.26
2018-07-15T15:39:31.940Z,31.48
2018-07-15T15:43:35.411Z,30.62
2018-07-15T15:47:38.866Z,33.46
2018-07-15T15:51:42.297Z,33.12
2018-07-15T15:55:45.785Z,32.02
2018-07-15T15:59:49.265Z,32.35
2018-07-15T16:03:52.706Z,32.87
2018-07-15T16:07:56.132Z,32.70
2018-07-15T16:11:59.545Z,32.20
2018-07-15T16:16:02.980Z,31.37
2018-07-15T16:20:06.896Z,33.84
2018-07-15T16:24:10.342Z,33.65
2018-07-15T16:28:13.777Z,32.46
2018-07-15T16:32:17.211Z,31.09
2018-07-15T16:36:20.595Z,31.70
2018-07-15T16:40:24.058Z,32.15
2018-07-15T16:44:27.511Z,31.02
2018-07-15T16:48:30.955Z,32.41
2018-07-15T16:52:34.400Z,34.52
2018-07-15T16:56:37.848Z,32.57
2018-07-15T17:00:41.257Z,32.64
2018-07-15T17:04:44.684Z,33.10
2018-07-15T17:08:48.081Z,33.56
2018-07-15T17:12:51.628Z,35.11
2018-07-15T17:16:55.107Z,36.58
2018-07-15T17:20:58.559Z,38.51
2018-07-15T17:25:02.011Z,36.08
2018-07-15T17:29:05.457Z,37.37
2018-07-15T17:33:08.880Z,35.29
2018-07-15T17:37:12.364Z,35.71
2018-07-15T17:41:15.797Z,35.74
2018-07-15T17:45:19.299Z,35.43
2018-07-15T17:49:26.519Z,35.44
2018-07-15T17:53:29.949Z,35.50
2018-07-15T17:57:33.383Z,36.97
2018-07-15T18:01:36.887Z,37.00
2018-07-15T18:05:40.308Z,37.13
2018-07-15T18:09:43.818Z,37.51
2018-07-15T18:13:47.346Z,38.05
2018-07-15T18:17:50.812Z,38.84
2018-07-15T18:21:54.415Z,38.90
2018-07-15T18:25:57.815Z,37.28
2018-07-15T18:30:01.325Z,38.89
2018-07-15T18:34:04.749Z,39.06
2018-07-15T18:38:08.193Z,38.35
2018-07-15T18:42:11.612Z,39.25
2018-07-15T18:46:15.065Z,39.48
2018-07-15T18:50:18.468Z,40.42
2018-07-15T18:54:21.901Z,40.69
2018-07-15T18:58:25.295Z,40.91
2018-07-15T19:02:28.727Z,40.31
2018-07-15T19:06:32.192Z,41.63
2018-07-15T19:10:35.920Z,42.01
2018-07-15T19:14:39.350Z,41.32
2018-07-15T19:18:42.802Z,42.26
2018-07-15T19:22:46.540Z,40.82
2018-07-15T19:26:50.565Z,41.07
2018-07-15T19:30:54.006Z,41.07
2018-07-15T19:34:57.442Z,41.33
2018-07-15T19:39:00.910Z,41.24
2018-07-15T19:43:04.385Z,41.85
2018-07-15T19:47:07.832Z,42.49
2018-07-15T19:51:11.258Z,42.55
2018-07-15T19:55:14.757Z,42.49
2018-07-15T19:59:18.152Z,41.83
2018-07-15T20:03:21.575Z,42.86
2018-07-15T20:07:25.054Z,42.01
2018-07-15T20:11:28.493Z,42.81
2018-07-15T20:15:31.964Z,42.43
2018-07-15T20:19:35.426Z,42.82
2018-07-15T20:23:38.827Z,42.35
2018-07-15T20:27:42.361Z,42.95
2018-07-15T20:31:50.419Z,43.76
2018-07-15T20:35:53.864Z,42.86
2018-07-15T20:39:57.383Z,43.76
2018-07-15T20:44:00.729Z,43.47
2018-07-15T20:48:04.138Z,44.17
2018-07-15T20:52:07.712Z,44.73
2018-07-15T20:56:11.203Z,45.22
2018-07-15T21:00:14.575Z,44.94
2018-07-15T21:04:18.007Z,45.86
2018-07-15T21:08:21.478Z,46.09
2018-07-15T21:12:25.105Z,45.92
2018-07-15T21:16:28.543Z,47.05
2018-07-15T21:20:32.019Z,46.37
2018-07-15T21:24:35.473Z,47.22
2018-07-15T21:28:38.910Z,47.48
2018-07-15T21:32:42.340Z,49.08
2018-07-15T21:36:45.943Z,48.66
2018-07-15T21:40:49.378Z,48.46
2018-07-15T21:44:52.781Z,49.10
2018-07-15T21:48:56.195Z,49.11
2018-07-15T21:52:59.652Z,49.83
2018-07-15T21:57:03.097Z,50.45
2018-07-15T22:01:06.541Z,50.29
2018-07-15T22:05:09.958Z,50.08
2018-07-15T22:09:24.399Z,50.68
2018-07-15T22:13:27.830Z,49.91
2018-07-15T22:17:31.278Z,50.91
2018-07-15T22:21:34.662Z,51.38
2018-07-15T22:25:38.089Z,51.65
2018-07-15T22:29:41.672Z,51.22
2018-07-15T22:33:45.104Z,51.53
2018-07-15T22:37:48.540Z,51.89
2018-07-15T22:41:51.958Z,52.23
2018-07-15T22:45:55.382Z,52.90
2018-07-15T22:49:58.766Z,52.20
2018-07-15T22:54:02.222Z,53.23
2018-07-15T22:58:05.615Z,53.24
2018-07-15T23:02:09.098Z,52.07
2018-07-15T23:06:18.683Z,52.86
2018-07-15T23:10:22.116Z,52.07
2018-07-15T23:14:25.532Z,52.37
2018-07-15T23:18:28.942Z,53.13
2018-07-15T23:22:32.390Z,53.62
2018-07-15T23:26:35.817Z,53.15
2018-07-15T23:30:39.850Z,53.66
2018-07-15T23:34:43.258Z,53.83
2018-07-15T23:38:46.667Z,53.98
2018-07-15T23:42:51.041Z,54.77
2018-07-15T23:46:54.426Z,53.94
2018-07-15T23:50:57.961Z,53.83
2018-07-15T23:55:01.436Z,53.54
2018-07-15T23:59:04.866Z,53.62
